Time;durP1;ratioP1;P1;durP2;ratioP2;P2;SDS_P1;SDS_P2;PMS_P1;PMS_P2;Temp;Humidity;BMP_temperature;BMP_pressure;BME280_temperature;BME280_humidity;BME280_pressure;Samples;Min_cycle;Max_cycle;Signal;HPM_P1;HPM_P2
2021/12/09 00:01:23;;;;;;;41.15;22.25;;;2.90;99.90;;;;;;5121941;27;20862;-74
2021/12/09 00:03:54;;;;;;;42.83;23.42;;;2.80;99.90;;;;;;5121297;27;20313;-73
2021/12/09 00:06:25;;;;;;;44.30;23.65;;;2.80;99.90;;;;;;5121753;27;20707;-72
2021/12/09 00:08:55;;;;;;;38.47;20.88;;;2.90;99.90;;;;;;5121673;27;20219;-72
2021/12/09 00:11:23;;;;;;;44.05;23.20;;;3.00;99.90;;;;;;5122721;27;20195;-72
2021/12/09 00:13:52;;;;;;;43.15;24.27;;;3.00;99.90;;;;;;5121699;27;20213;-70
2021/12/09 00:16:20;;;;;;;41.30;22.27;;;3.00;99.90;;;;;;5121605;27;20973;-72
2021/12/09 00:18:48;;;;;;;47.63;23.98;;;3.00;99.90;;;;;;5122578;27;20223;-73
2021/12/09 00:21:16;;;;;;;41.75;23.77;;;3.00;99.90;;;;;;5119777;27;20804;-65
2021/12/09 00:23:44;;;;;;;43.40;23.63;;;3.10;99.90;;;;;;5120274;27;20404;-65
2021/12/09 00:26:13;;;;;;;39.97;20.77;;;3.10;99.90;;;;;;5120208;27;20419;-67
2021/12/09 00:28:41;;;;;;;46.20;26.17;;;3.20;99.90;;;;;;5120021;27;20635;-68
2021/12/09 00:31:09;;;;;;;45.90;24.77;;;3.20;99.90;;;;;;5121964;27;20302;-67
2021/12/09 00:33:42;;;;;;;46.85;23.23;;;3.20;99.90;;;;;;5120405;27;20446;-67
2021/12/09 00:36:12;;;;;;;45.60;22.02;;;3.20;99.90;;;;;;5120331;27;20222;-67
2021/12/09 00:38:41;;;;;;;43.28;23.15;;;3.20;99.90;;;;;;5120662;27;20440;-66
2021/12/09 00:41:11;;;;;;;42.35;23.38;;;3.20;99.90;;;;;;5119911;27;20225;-66
2021/12/09 00:43:41;;;;;;;47.33;24.60;;;3.10;99.90;;;;;;5119574;27;20301;-66
2021/12/09 00:46:10;;;;;;;48.78;24.27;;;3.10;99.90;;;;;;5119883;27;20773;-67
2021/12/09 00:48:38;;;;;;;41.25;23.77;;;3.20;99.90;;;;;;5120155;27;20458;-67
2021/12/09 00:51:08;;;;;;;43.33;24.50;;;3.10;99.90;;;;;;5120254;27;20395;-67
2021/12/09 00:53:37;;;;;;;43.40;23.17;;;3.10;99.90;;;;;;5119827;27;20309;-67
2021/12/09 00:56:07;;;;;;;39.08;20.98;;;3.10;99.90;;;;;;5119684;27;20234;-66
2021/12/09 00:58:34;;;;;;;42.05;22.90;;;3.10;99.90;;;;;;5120262;27;20492;-67
2021/12/09 01:01:05;;;;;;;45.83;23.25;;;3.10;99.90;;;;;;5120494;27;20254;-68
2021/12/09 01:03:33;;;;;;;43.50;22.92;;;3.20;99.90;;;;;;5126495;27;20203;-68
2021/12/09 01:06:01;;;;;;;40.50;22.35;;;3.10;99.90;;;;;;5135903;27;20230;-67
2021/12/09 01:08:41;;;;;;;42.58;24.42;;;3.10;99.90;;;;;;5122662;27;20223;-64
2021/12/09 01:11:09;;;;;;;44.45;24.15;;;3.20;99.90;;;;;;5120133;27;20191;-66
2021/12/09 01:13:37;;;;;;;44.47;23.17;;;3.10;99.90;;;;;;5119718;27;20227;-66
2021/12/09 01:16:07;;;;;;;40.25;22.05;;;3.10;99.90;;;;;;5119868;27;20287;-66
2021/12/09 01:18:36;;;;;;;50.75;23.08;;;3.00;99.90;;;;;;5119960;27;20710;-66
2021/12/09 01:21:05;;;;;;;48.20;24.70;;;2.90;99.90;;;;;;5140183;27;20222;-65
2021/12/09 01:23:33;;;;;;;46.70;25.77;;;2.90;99.90;;;;;;5130773;27;20207;-64
2021/12/09 01:26:03;;;;;;;52.33;25.77;;;2.90;99.90;;;;;;5119563;27;20765;-66
2021/12/09 01:28:39;;;;;;;53.50;26.48;;;2.90;99.90;;;;;;5119304;27;20298;-67
2021/12/09 01:31:09;;;;;;;52.97;25.27;;;2.90;99.90;;;;;;5119684;27;20203;-66
2021/12/09 01:33:37;;;;;;;42.60;24.30;;;2.90;99.90;;;;;;5119094;27;20861;-67
2021/12/09 01:36:07;;;;;;;42.40;24.55;;;3.00;99.90;;;;;;5119414;28;20222;-68
2021/12/09 01:38:35;;;;;;;50.83;23.23;;;3.00;99.90;;;;;;5119263;27;20199;-69
2021/12/09 01:41:04;;;;;;;43.42;23.67;;;2.90;99.90;;;;;;5119022;27;20218;-65
2021/12/09 01:43:32;;;;;;;47.47;25.30;;;3.00;99.90;;;;;;5118857;28;20222;-68
2021/12/09 01:46:05;;;;;;;47.60;26.23;;;3.00;99.90;;;;;;5119504;27;20479;-67
2021/12/09 01:48:35;;;;;;;49.60;26.13;;;2.90;99.90;;;;;;5123741;27;20195;-67
2021/12/09 01:51:04;;;;;;;46.70;24.00;;;2.90;99.90;;;;;;5120938;28;20203;-68
2021/12/09 01:53:32;;;;;;;40.42;24.23;;;2.90;99.90;;;;;;5118994;27;20233;-67
2021/12/09 01:56:03;;;;;;;51.95;26.77;;;2.90;99.90;;;;;;5119761;27;20490;-67
2021/12/09 01:58:32;;;;;;;47.65;25.58;;;2.80;99.90;;;;;;5132569;27;20283;-67
2021/12/09 02:01:01;;;;;;;49.45;25.95;;;2.80;99.90;;;;;;5118908;27;20219;-68
2021/12/09 02:03:29;;;;;;;59.33;27.05;;;2.90;99.90;;;;;;5118684;27;20299;-66
2021/12/09 02:05:59;;;;;;;53.20;27.92;;;2.90;99.90;;;;;;5120969;27;20596;-66
2021/12/09 02:08:27;;;;;;;55.47;28.02;;;2.90;99.90;;;;;;5122739;27;20203;-65
2021/12/09 02:10:55;;;;;;;55.15;28.23;;;2.90;99.90;;;;;;5122997;27;20287;-66
2021/12/09 02:13:23;;;;;;;51.80;25.27;;;2.90;99.90;;;;;;5122646;27;20537;-67
2021/12/09 02:15:53;;;;;;;50.05;25.83;;;2.90;99.90;;;;;;5122782;27;20463;-68
2021/12/09 02:18:21;;;;;;;46.88;24.02;;;3.00;99.90;;;;;;5122537;27;20199;-65
2021/12/09 02:21:07;;;;;;;56.15;28.73;;;3.10;99.90;;;;;;5122619;27;20254;-67
2021/12/09 02:23:36;;;;;;;53.70;28.20;;;3.00;99.90;;;;;;5123251;27;20218;-66
2021/12/09 02:26:05;;;;;;;51.83;26.15;;;2.90;99.90;;;;;;5122683;27;20352;-65
2021/12/09 02:28:33;;;;;;;56.92;26.95;;;2.90;99.90;;;;;;5122740;27;20294;-65
2021/12/09 02:31:02;;;;;;;55.22;27.27;;;2.80;99.90;;;;;;5123770;27;20317;-66
2021/12/09 02:33:30;;;;;;;58.63;29.10;;;2.90;99.90;;;;;;5122869;27;20256;-67
2021/12/09 02:35:58;;;;;;;60.10;28.27;;;2.90;99.90;;;;;;5122566;27;20206;-65
2021/12/09 02:38:27;;;;;;;58.38;28.25;;;2.80;99.90;;;;;;5122357;27;20286;-66
2021/12/09 02:40:56;;;;;;;52.97;26.45;;;2.90;99.90;;;;;;5122272;27;20254;-67
2021/12/09 02:43:26;;;;;;;50.10;25.10;;;2.90;99.90;;;;;;5122116;27;20241;-67
2021/12/09 02:45:55;;;;;;;57.25;27.40;;;2.90;99.90;;;;;;5122152;27;20628;-67
2021/12/09 02:48:24;;;;;;;51.95;26.50;;;2.90;99.90;;;;;;5121912;27;20241;-67
2021/12/09 02:50:53;;;;;;;57.88;28.70;;;2.90;99.90;;;;;;5121468;27;20195;-66
2021/12/09 02:53:22;;;;;;;62.35;27.05;;;2.90;99.90;;;;;;5121915;27;20245;-67
2021/12/09 02:55:51;;;;;;;50.13;27.48;;;2.90;99.90;;;;;;5122131;27;20638;-67
2021/12/09 02:58:19;;;;;;;52.83;27.65;;;2.80;99.90;;;;;;5121204;27;20302;-67
2021/12/09 03:00:56;;;;;;;56.85;26.65;;;2.80;99.90;;;;;;5121537;27;20679;-68
2021/12/09 03:03:25;;;;;;;63.50;29.30;;;2.90;99.90;;;;;;5121572;27;20199;-68
2021/12/09 03:05:54;;;;;;;62.47;27.77;;;2.80;99.90;;;;;;5123190;27;20343;-67
2021/12/09 03:08:33;;;;;;;54.63;26.10;;;2.80;99.90;;;;;;5121541;27;20341;-67
2021/12/09 03:11:08;;;;;;;50.67;26.50;;;2.80;99.90;;;;;;5121541;27;20225;-67
2021/12/09 03:13:37;;;;;;;58.35;29.55;;;2.90;99.90;;;;;;5121484;27;20373;-65
2021/12/09 03:16:06;;;;;;;59.75;28.65;;;2.90;99.90;;;;;;5120928;27;20368;-64
2021/12/09 03:18:39;;;;;;;62.25;26.73;;;3.00;99.90;;;;;;5120906;27;20245;-65
2021/12/09 03:21:15;;;;;;;65.43;32.15;;;3.00;99.90;;;;;;5122118;27;20348;-65
2021/12/09 03:23:43;;;;;;;59.55;28.48;;;2.90;99.90;;;;;;5125240;27;20302;-65
2021/12/09 03:26:15;;;;;;;64.60;29.63;;;2.90;99.90;;;;;;5130278;27;20225;-68
2021/12/09 03:28:44;;;;;;;57.15;27.05;;;2.90;99.90;;;;;;5139318;27;20226;-65
2021/12/09 03:31:11;;;;;;;61.00;28.42;;;3.00;99.90;;;;;;5133373;27;20242;-65
2021/12/09 03:33:39;;;;;;;59.25;27.80;;;3.00;99.90;;;;;;5124690;27;20283;-65
2021/12/09 03:36:08;;;;;;;58.33;28.98;;;3.00;99.90;;;;;;5125880;27;20255;-66
2021/12/09 03:38:36;;;;;;;76.72;28.80;;;3.00;99.90;;;;;;5125130;27;20234;-66
2021/12/09 03:41:05;;;;;;;60.50;27.15;;;3.00;99.90;;;;;;5123715;27;20485;-65
2021/12/09 03:43:35;;;;;;;61.72;28.67;;;3.00;99.90;;;;;;5121857;27;20538;-65
2021/12/09 03:46:03;;;;;;;64.53;29.58;;;3.00;99.90;;;;;;5122457;27;20301;-65
2021/12/09 03:48:31;;;;;;;63.63;29.35;;;3.10;99.90;;;;;;5132520;27;20252;-65
2021/12/09 03:51:00;;;;;;;59.05;26.27;;;3.10;99.90;;;;;;5145303;27;20321;-65
2021/12/09 03:53:27;;;;;;;59.38;29.75;;;3.10;99.90;;;;;;5127556;27;20242;-67
2021/12/09 03:55:55;;;;;;;61.45;27.88;;;3.00;99.90;;;;;;5123574;27;20258;-65
2021/12/09 03:58:23;;;;;;;66.55;30.27;;;3.00;99.90;;;;;;5121327;27;20299;-65
2021/12/09 04:00:53;;;;;;;66.10;30.45;;;3.10;99.90;;;;;;5122420;27;20205;-67
2021/12/09 04:03:21;;;;;;;58.17;26.60;;;3.00;99.90;;;;;;5121024;27;20245;-65
2021/12/09 04:05:49;;;;;;;57.53;28.42;;;3.10;99.90;;;;;;5121255;27;20203;-67
2021/12/09 04:08:20;;;;;;;68.35;28.67;;;3.10;99.90;;;;;;5120652;27;20195;-65
2021/12/09 04:10:50;;;;;;;54.17;27.00;;;3.20;99.90;;;;;;5120500;27;20328;-66
2021/12/09 04:13:18;;;;;;;67.45;26.45;;;3.20;99.90;;;;;;5120322;27;20290;-66
2021/12/09 04:15:46;;;;;;;65.57;27.83;;;3.20;99.90;;;;;;5120567;27;20293;-66
2021/12/09 04:18:16;;;;;;;59.67;28.05;;;3.20;99.90;;;;;;5120135;27;20448;-66
2021/12/09 04:20:44;;;;;;;60.90;29.90;;;3.20;99.90;;;;;;5119925;27;20222;-67
2021/12/09 04:23:12;;;;;;;58.67;28.05;;;3.20;99.90;;;;;;5120435;27;20321;-67
2021/12/09 04:25:40;;;;;;;61.47;31.08;;;3.20;99.90;;;;;;5121285;27;20195;-67
2021/12/09 04:28:08;;;;;;;63.85;28.15;;;3.20;99.90;;;;;;5122060;27;20315;-67
2021/12/09 04:30:36;;;;;;;55.10;27.77;;;3.10;99.90;;;;;;5121274;27;20670;-68
2021/12/09 04:33:04;;;;;;;65.00;29.50;;;3.10;99.90;;;;;;5120919;27;20219;-67
2021/12/09 04:35:33;;;;;;;56.25;27.05;;;3.10;99.90;;;;;;5120587;27;20195;-67
2021/12/09 04:38:01;;;;;;;61.40;29.02;;;3.00;99.90;;;;;;5120980;27;20305;-67
2021/12/09 04:40:29;;;;;;;55.35;29.25;;;3.00;99.90;;;;;;5120325;27;20279;-64
2021/12/09 04:42:57;;;;;;;56.50;29.63;;;3.00;99.90;;;;;;5120003;27;20223;-64
2021/12/09 04:45:27;;;;;;;59.15;31.38;;;3.00;99.90;;;;;;5119964;27;20685;-63
2021/12/09 04:47:55;;;;;;;59.67;28.92;;;2.90;99.90;;;;;;5119714;27;20219;-63
2021/12/09 04:50:23;;;;;;;65.97;32.22;;;2.90;99.90;;;;;;5119497;27;20626;-66
2021/12/09 04:52:53;;;;;;;62.65;29.98;;;2.80;99.90;;;;;;5119579;27;20191;-67
2021/12/09 04:55:21;;;;;;;61.30;29.13;;;2.80;99.90;;;;;;5119526;27;20295;-65
2021/12/09 04:57:49;;;;;;;57.08;28.27;;;2.80;99.90;;;;;;5119566;27;20234;-65
2021/12/09 05:00:21;;;;;;;61.47;28.23;;;2.70;99.90;;;;;;5119904;27;20313;-66
2021/12/09 05:03:02;;;;;;;59.85;28.52;;;2.60;99.90;;;;;;5119706;27;20372;-65
2021/12/09 05:05:34;;;;;;;68.82;30.42;;;2.60;99.90;;;;;;5120231;27;20255;-66
2021/12/09 05:08:06;;;;;;;61.38;27.77;;;2.50;99.90;;;;;;5119794;27;20253;-65
2021/12/09 05:10:48;;;;;;;61.00;26.83;;;2.40;99.90;;;;;;5120201;27;20841;-65
2021/12/09 05:13:17;;;;;;;66.50;30.10;;;2.40;99.90;;;;;;5120488;27;20176;-66
2021/12/09 05:15:45;;;;;;;58.20;29.08;;;2.30;99.90;;;;;;5120730;27;20226;-66
2021/12/09 05:18:13;;;;;;;56.10;29.15;;;2.30;99.90;;;;;;5120813;27;20210;-66
2021/12/09 05:20:42;;;;;;;64.25;31.38;;;2.40;99.90;;;;;;5120278;27;20351;-66
2021/12/09 05:23:11;;;;;;;52.28;25.67;;;2.40;99.90;;;;;;5134211;27;20287;-65
2021/12/09 05:25:39;;;;;;;59.17;30.05;;;2.40;99.90;;;;;;5122232;27;20318;-65
2021/12/09 05:28:08;;;;;;;68.40;27.75;;;2.40;99.90;;;;;;5120594;27;20270;-66
2021/12/09 05:30:40;;;;;;;66.43;30.52;;;2.40;99.90;;;;;;5119488;27;20805;-68
2021/12/09 05:33:07;;;;;;;64.85;29.88;;;2.50;99.90;;;;;;5120522;27;20195;-66
2021/12/09 05:35:35;;;;;;;57.25;29.70;;;2.50;99.90;;;;;;5119858;27;20207;-65
2021/12/09 05:38:03;;;;;;;54.08;27.00;;;2.60;99.90;;;;;;5120071;27;20213;-65
2021/12/09 05:40:32;;;;;;;56.72;28.15;;;2.60;99.90;;;;;;5121033;27;20306;-67
2021/12/09 05:43:00;;;;;;;56.00;28.92;;;2.50;99.90;;;;;;5124442;27;20697;-66
2021/12/09 05:45:28;;;;;;;51.47;27.08;;;2.50;99.90;;;;;;5124731;27;20289;-66
2021/12/09 05:47:55;;;;;;;60.05;28.83;;;2.50;99.90;;;;;;5124621;27;20241;-67
2021/12/09 05:50:23;;;;;;;58.20;28.15;;;2.60;99.90;;;;;;5148557;27;20286;-66
2021/12/09 05:52:51;;;;;;;58.78;27.58;;;2.70;99.90;;;;;;5141294;27;20223;-65
2021/12/09 05:55:19;;;;;;;51.35;28.40;;;2.70;99.90;;;;;;5124014;27;20266;-67
2021/12/09 05:57:48;;;;;;;72.00;31.27;;;2.70;99.90;;;;;;5123235;27;20298;-65
2021/12/09 06:00:17;;;;;;;57.67;28.92;;;2.80;99.90;;;;;;5128606;27;20243;-69
2021/12/09 06:02:45;;;;;;;61.90;30.30;;;2.80;99.90;;;;;;5131710;27;20225;-65
2021/12/09 06:05:13;;;;;;;57.78;30.13;;;2.80;99.90;;;;;;5124758;27;20198;-66
2021/12/09 06:07:41;;;;;;;65.97;28.45;;;2.80;99.90;;;;;;5123880;27;20252;-65
2021/12/09 06:10:09;;;;;;;56.70;27.15;;;2.80;99.90;;;;;;5122386;27;20713;-65
2021/12/09 06:12:37;;;;;;;49.85;25.25;;;2.70;99.90;;;;;;5122121;27;20536;-69
2021/12/09 06:15:08;;;;;;;59.22;29.10;;;2.70;99.90;;;;;;5121543;27;20319;-64
2021/12/09 06:17:36;;;;;;;57.38;28.80;;;2.70;99.90;;;;;;5121360;27;20670;-64
2021/12/09 06:20:05;;;;;;;60.88;29.05;;;2.70;99.90;;;;;;5122072;27;20214;-64
2021/12/09 06:22:32;;;;;;;61.20;31.92;;;2.80;99.90;;;;;;5121535;27;20691;-64
2021/12/09 06:25:00;;;;;;;58.78;28.33;;;2.80;99.90;;;;;;5122437;27;20678;-65
2021/12/09 06:27:28;;;;;;;67.80;28.52;;;2.80;99.90;;;;;;5122228;27;20685;-64
2021/12/09 06:29:56;;;;;;;57.97;27.80;;;2.70;99.90;;;;;;5122490;27;20251;-64
2021/12/09 06:32:26;;;;;;;63.17;30.27;;;2.70;99.90;;;;;;5122002;27;20278;-64
2021/12/09 06:34:54;;;;;;;61.50;29.00;;;2.70;99.90;;;;;;5122000;27;20221;-65
2021/12/09 06:37:22;;;;;;;57.65;29.30;;;2.70;99.90;;;;;;5121638;27;20294;-64
2021/12/09 06:39:49;;;;;;;59.03;30.40;;;2.60;99.90;;;;;;5121278;27;20305;-64
2021/12/09 06:42:17;;;;;;;63.05;33.15;;;2.70;99.90;;;;;;5121725;27;20298;-64
2021/12/09 06:44:45;;;;;;;65.65;28.95;;;2.70;99.90;;;;;;5121787;27;20543;-64
2021/12/09 06:47:13;;;;;;;64.65;32.00;;;2.60;99.90;;;;;;5121553;27;20294;-64
2021/12/09 06:49:43;;;;;;;57.47;29.95;;;2.70;99.90;;;;;;5122179;27;20303;-64
2021/12/09 06:52:11;;;;;;;63.53;31.25;;;2.70;99.90;;;;;;5122930;27;20205;-64
2021/12/09 06:54:39;;;;;;;67.70;31.15;;;2.70;99.90;;;;;;5130701;27;20237;-64
2021/12/09 06:57:07;;;;;;;61.28;30.23;;;2.80;99.90;;;;;;5122804;27;20233;-64
2021/12/09 06:59:35;;;;;;;72.82;32.75;;;2.70;99.90;;;;;;5122604;27;20313;-64
2021/12/09 07:02:03;;;;;;;54.53;27.15;;;2.70;99.90;;;;;;5121586;27;20233;-65
2021/12/09 07:04:32;;;;;;;60.92;30.25;;;2.80;99.90;;;;;;5121085;27;20307;-64
2021/12/09 07:07:01;;;;;;;60.33;29.80;;;2.70;99.90;;;;;;5121805;27;20282;-65
2021/12/09 07:09:30;;;;;;;55.97;28.85;;;2.70;99.90;;;;;;5121010;27;20248;-64
2021/12/09 07:11:57;;;;;;;61.50;30.27;;;2.80;99.90;;;;;;5121064;27;20750;-65
2021/12/09 07:14:26;;;;;;;65.90;30.80;;;2.80;99.90;;;;;;5120356;27;20230;-64
2021/12/09 07:16:59;;;;;;;59.88;31.55;;;2.80;99.90;;;;;;5122990;27;20296;-64
2021/12/09 07:19:27;;;;;;;57.35;28.80;;;2.90;99.90;;;;;;5121327;27;20330;-65
2021/12/09 07:21:55;;;;;;;64.72;31.83;;;2.80;99.90;;;;;;5121254;27;20286;-63
2021/12/09 07:24:24;;;;;;;64.85;29.63;;;2.80;99.90;;;;;;5121134;27;20223;-62
2021/12/09 07:26:52;;;;;;;65.78;30.40;;;2.80;99.90;;;;;;5121419;27;20294;-63
2021/12/09 07:29:20;;;;;;;61.50;29.80;;;2.80;99.90;;;;;;5120880;27;20288;-62
2021/12/09 07:31:51;;;;;;;69.63;32.20;;;2.70;99.90;;;;;;5111911;27;20222;-64
2021/12/09 07:34:19;;;;;;;72.72;34.28;;;2.70;99.90;;;;;;5110328;27;20409;-64
2021/12/09 07:36:47;;;;;;;64.28;30.60;;;2.70;99.90;;;;;;5111527;27;20279;-63
2021/12/09 07:39:15;;;;;;;64.45;31.40;;;2.70;99.90;;;;;;5109843;27;20211;-63
2021/12/09 07:41:49;;;;;;;69.47;33.95;;;2.70;99.90;;;;;;5108694;27;20260;-63
2021/12/09 07:44:18;;;;;;;65.47;32.72;;;2.70;99.90;;;;;;5118217;27;20251;-63
2021/12/09 07:46:48;;;;;;;68.18;32.45;;;2.70;99.90;;;;;;5120225;27;20666;-64
2021/12/09 07:49:16;;;;;;;61.00;30.73;;;2.70;99.90;;;;;;5119588;27;20215;-65
2021/12/09 07:51:45;;;;;;;62.30;30.50;;;2.80;99.90;;;;;;5122656;27;20395;-65
2021/12/09 07:54:13;;;;;;;58.95;31.50;;;2.80;99.90;;;;;;5122783;27;20287;-65
2021/12/09 07:56:41;;;;;;;65.43;29.83;;;2.80;99.90;;;;;;5121966;27;20223;-63
2021/12/09 07:59:11;;;;;;;65.88;32.63;;;2.80;99.90;;;;;;5123535;27;20310;-62
2021/12/09 08:01:39;;;;;;;62.58;29.00;;;2.70;99.90;;;;;;5125371;27;20210;-63
2021/12/09 08:04:08;;;;;;;67.35;32.85;;;2.80;99.90;;;;;;5122830;27;20503;-65
2021/12/09 08:06:36;;;;;;;62.92;29.13;;;2.70;99.90;;;;;;5121971;27;20562;-63
2021/12/09 08:09:04;;;;;;;62.63;30.73;;;2.80;99.90;;;;;;5123460;27;20242;-63
2021/12/09 08:11:36;;;;;;;75.10;35.42;;;2.70;99.90;;;;;;5128346;27;20229;-63
2021/12/09 08:14:04;;;;;;;64.20;30.90;;;2.70;99.90;;;;;;5135284;27;20226;-64
2021/12/09 08:16:37;;;;;;;68.47;31.05;;;2.70;99.90;;;;;;5140479;27;20595;-67
2021/12/09 08:19:06;;;;;;;63.72;31.08;;;2.70;99.90;;;;;;5132473;27;20247;-69
2021/12/09 08:21:36;;;;;;;72.85;33.15;;;2.80;99.90;;;;;;5129891;27;20230;-69
2021/12/09 08:24:12;;;;;;;65.82;30.95;;;2.90;99.90;;;;;;5128148;27;20249;-74
2021/12/09 08:26:57;;;;;;;71.45;31.90;;;3.00;99.90;;;;;;5128850;27;20199;-70
2021/12/09 08:29:25;;;;;;;63.80;29.20;;;3.00;99.90;;;;;;5127430;27;20238;-70
2021/12/09 08:32:10;;;;;;;60.00;30.52;;;3.00;99.90;;;;;;5131428;27;20199;-73
2021/12/09 08:34:46;;;;;;;63.85;32.95;;;3.00;99.90;;;;;;5135140;27;20199;-74
2021/12/09 08:37:19;;;;;;;63.00;33.22;;;3.00;99.90;;;;;;5135365;27;20729;-71
2021/12/09 08:40:02;;;;;;;70.00;33.30;;;2.90;99.90;;;;;;5101994;28;20215;-71
2021/12/09 08:42:30;;;;;;;70.15;32.53;;;2.80;99.90;;;;;;5096892;28;20452;-73
2021/12/09 08:44:59;;;;;;;69.75;32.55;;;2.80;99.90;;;;;;5109829;28;20344;-71
2021/12/09 08:47:28;;;;;;;62.50;32.00;;;2.90;99.90;;;;;;5108747;28;20708;-71
2021/12/09 08:49:56;;;;;;;77.65;33.83;;;2.80;99.90;;;;;;5113509;28;20223;-70
2021/12/09 08:52:25;;;;;;;68.32;32.75;;;2.70;99.90;;;;;;5113376;28;20291;-71
2021/12/09 08:54:53;;;;;;;62.53;30.65;;;2.70;99.90;;;;;;5118179;28;20328;-72
2021/12/09 08:57:25;;;;;;;77.07;31.50;;;2.80;99.90;;;;;;5099624;28;20212;-71
2021/12/09 08:59:53;;;;;;;68.32;32.42;;;2.80;99.90;;;;;;5094904;28;20255;-71
2021/12/09 09:02:21;;;;;;;65.72;32.15;;;2.70;99.90;;;;;;5096049;28;20614;-71
2021/12/09 09:04:50;;;;;;;64.43;29.92;;;2.80;99.90;;;;;;5096217;28;20876;-69
2021/12/09 09:07:18;;;;;;;66.13;32.53;;;2.80;99.90;;;;;;5094281;28;20199;-71
2021/12/09 09:09:46;;;;;;;62.83;30.15;;;2.80;99.90;;;;;;5079878;28;20798;-71
2021/12/09 09:12:14;;;;;;;67.05;31.55;;;2.80;99.90;;;;;;5102038;27;20225;-71
2021/12/09 09:14:42;;;;;;;69.53;32.08;;;2.90;99.90;;;;;;5102105;27;20425;-72
2021/12/09 09:17:10;;;;;;;72.32;34.55;;;2.90;99.90;;;;;;5113660;27;20558;-71
2021/12/09 09:19:38;;;;;;;75.03;34.35;;;2.80;99.90;;;;;;5116742;27;20296;-71
2021/12/09 09:22:08;;;;;;;69.78;33.53;;;2.80;99.90;;;;;;5117579;27;20255;-67
2021/12/09 09:24:39;;;;;;;66.93;33.88;;;2.90;99.90;;;;;;5118394;27;20253;-72
2021/12/09 09:27:08;;;;;;;69.40;31.70;;;2.90;99.90;;;;;;5117288;27;20211;-73
2021/12/09 09:29:38;;;;;;;76.43;33.58;;;2.90;99.90;;;;;;5118670;27;20222;-72
2021/12/09 09:32:10;;;;;;;73.65;34.83;;;2.90;99.90;;;;;;5118965;27;20867;-73
2021/12/09 09:34:38;;;;;;;79.38;33.92;;;2.90;99.90;;;;;;5123480;27;20215;-72
2021/12/09 09:37:08;;;;;;;67.72;32.65;;;3.00;99.90;;;;;;5114857;28;20195;-73
2021/12/09 09:39:41;;;;;;;76.95;34.67;;;2.90;99.90;;;;;;5118690;28;20212;-73
2021/12/09 09:42:32;;;;;;;66.90;29.80;;;2.90;99.90;;;;;;5130105;27;20681;-73
2021/12/09 09:45:03;;;;;;;69.38;32.63;;;3.00;99.90;;;;;;5121658;28;20221;-71
2021/12/09 09:47:32;;;;;;;70.22;32.47;;;3.00;99.90;;;;;;5140288;28;20366;-73
2021/12/09 09:50:05;;;;;;;62.22;32.00;;;3.00;99.90;;;;;;5141241;28;20247;-72
2021/12/09 09:52:35;;;;;;;73.80;33.67;;;3.10;99.90;;;;;;5135052;27;20371;-70
2021/12/09 09:55:07;;;;;;;65.05;31.63;;;3.20;99.90;;;;;;5119765;27;20286;-71
2021/12/09 09:57:36;;;;;;;69.25;32.72;;;3.20;99.90;;;;;;5120173;27;20270;-71
2021/12/09 10:00:06;;;;;;;73.80;32.00;;;3.20;99.90;;;;;;5119227;27;20765;-69
2021/12/09 10:02:33;;;;;;;76.75;33.22;;;3.30;99.90;;;;;;5120951;27;20199;-69
2021/12/09 10:05:04;;;;;;;64.47;29.95;;;3.30;99.90;;;;;;5122700;27;20778;-69
2021/12/09 10:07:37;;;;;;;68.80;30.60;;;3.40;99.90;;;;;;5123516;28;20233;-70
2021/12/09 10:10:07;;;;;;;63.63;30.98;;;3.40;99.90;;;;;;5123477;28;20227;-70
2021/12/09 10:12:35;;;;;;;67.93;32.15;;;3.50;99.90;;;;;;5122454;27;20295;-70
2021/12/09 10:15:05;;;;;;;66.13;33.47;;;3.50;99.90;;;;;;5122791;28;20503;-74
2021/12/09 10:17:32;;;;;;;71.47;31.55;;;3.40;99.90;;;;;;5122010;27;20294;-72
2021/12/09 10:20:11;;;;;;;63.90;30.77;;;3.40;99.90;;;;;;5122511;27;20222;-72
2021/12/09 10:22:42;;;;;;;65.97;31.55;;;3.40;99.90;;;;;;5123879;27;20203;-72
2021/12/09 10:25:19;;;;;;;72.40;34.33;;;3.40;99.90;;;;;;5122884;28;20321;-71
2021/12/09 10:27:58;;;;;;;71.70;33.13;;;3.40;99.90;;;;;;5113351;27;20302;-71
2021/12/09 10:30:26;;;;;;;72.45;33.45;;;3.40;99.90;;;;;;5116882;27;20212;-71
2021/12/09 10:33:00;;;;;;;58.55;30.25;;;3.40;99.90;;;;;;5112592;27;20232;-71
2021/12/09 10:35:28;;;;;;;68.30;31.02;;;3.40;99.90;;;;;;5114742;27;20190;-71
2021/12/09 10:37:57;;;;;;;75.55;32.50;;;3.50;99.90;;;;;;5134302;27;20209;-71
2021/12/09 10:40:30;;;;;;;63.17;30.42;;;3.50;99.90;;;;;;5118058;27;20211;-70
2021/12/09 10:42:59;;;;;;;65.38;30.88;;;3.60;99.90;;;;;;5111401;27;20283;-71
2021/12/09 10:45:31;;;;;;;65.28;30.15;;;3.50;99.90;;;;;;5115239;27;20211;-70
2021/12/09 10:48:21;;;;;;;68.57;31.30;;;3.60;99.90;;;;;;5113781;27;20358;-70
2021/12/09 10:51:07;;;;;;;71.63;31.08;;;3.50;99.90;;;;;;5114995;27;20467;-71
2021/12/09 10:53:47;;;;;;;66.53;30.55;;;3.60;99.90;;;;;;5113953;27;20198;-70
2021/12/09 10:56:26;;;;;;;68.28;32.90;;;3.50;99.90;;;;;;5111450;27;20207;-70
2021/12/09 10:58:53;;;;;;;70.47;32.08;;;3.50;99.90;;;;;;5115256;27;20382;-71
2021/12/09 11:01:23;;;;;;;73.55;31.88;;;3.50;99.90;;;;;;5113745;27;20205;-70
2021/12/09 11:03:54;;;;;;;66.75;30.02;;;3.50;99.90;;;;;;5117311;27;20465;-70
2021/12/09 11:06:24;;;;;;;67.13;30.90;;;3.50;99.90;;;;;;5110549;27;20471;-70
2021/12/09 11:08:54;;;;;;;65.82;31.38;;;3.60;99.90;;;;;;5110661;27;20583;-69
2021/12/09 11:11:31;;;;;;;69.65;32.47;;;3.60;99.90;;;;;;5111984;27;20249;-70
2021/12/09 11:14:07;;;;;;;68.65;31.52;;;3.70;99.90;;;;;;5118609;27;20234;-66
2021/12/09 11:16:39;;;;;;;64.45;31.63;;;3.70;99.90;;;;;;5114469;27;20669;-66
2021/12/09 11:19:09;;;;;;;65.32;31.80;;;3.70;99.90;;;;;;5102784;27;20304;-67
2021/12/09 11:21:42;;;;;;;65.40;30.08;;;3.70;99.90;;;;;;5108441;27;20654;-69
2021/12/09 11:24:16;;;;;;;74.82;32.03;;;3.70;99.90;;;;;;5110834;27;20230;-69
2021/12/09 11:26:54;;;;;;;73.13;34.50;;;3.70;99.90;;;;;;5112263;27;20288;-68
2021/12/09 11:29:25;;;;;;;74.68;32.60;;;3.70;99.90;;;;;;5104544;27;20294;-72
2021/12/09 11:32:01;;;;;;;72.97;33.03;;;3.80;99.90;;;;;;5109907;27;20187;-71
2021/12/09 11:34:37;;;;;;;59.22;31.05;;;3.80;99.90;;;;;;5115166;27;20427;-72
2021/12/09 11:37:10;;;;;;;65.43;32.83;;;3.80;99.90;;;;;;5112287;27;20214;-72
2021/12/09 11:39:40;;;;;;;63.80;33.15;;;3.80;99.90;;;;;;5108290;27;20243;-75
2021/12/09 11:42:20;;;;;;;69.00;34.08;;;3.80;99.90;;;;;;5109786;27;20723;-75
2021/12/09 11:45:05;;;;;;;77.45;33.53;;;3.80;99.90;;;;;;5113218;27;20212;-74
2021/12/09 11:47:33;;;;;;;70.40;32.13;;;3.80;99.90;;;;;;5115717;27;20215;-74
2021/12/09 11:50:15;;;;;;;70.93;34.72;;;3.90;99.90;;;;;;5120905;27;20629;-78
2021/12/09 11:52:44;;;;;;;77.05;32.63;;;3.90;99.90;;;;;;5122278;27;20202;-74
2021/12/09 11:55:17;;;;;;;69.75;31.65;;;3.80;99.90;;;;;;5121683;27;20282;-74
2021/12/09 11:57:52;;;;;;;71.50;31.50;;;3.90;99.90;;;;;;5121023;27;20666;-66
2021/12/09 12:07:30;;;;;;;70.80;33.17;;;4.10;99.90;;;;;;5124979;27;20246;-69
2021/12/09 12:12:56;;;;;;;82.55;36.50;;;4.10;99.90;;;;;;5126057;27;20259;-70
2021/12/09 12:15:44;;;;;;;70.82;30.05;;;4.10;99.90;;;;;;5125924;27;20307;-72
2021/12/09 12:18:42;;;;;;;78.40;35.13;;;4.10;99.90;;;;;;5125813;27;20222;-71
2021/12/09 12:24:59;;;;;;;69.82;33.92;;;4.10;99.90;;;;;;5101472;27;20230;-73
2021/12/09 12:27:41;;;;;;;69.55;31.40;;;4.10;99.90;;;;;;5121812;27;20246;-66
2021/12/09 12:33:09;;;;;;;73.35;32.75;;;4.10;99.90;;;;;;5119969;27;20278;-72
2021/12/09 12:41:19;;;;;;;65.35;32.17;;;4.10;99.90;;;;;;5113957;27;20200;-69
2021/12/09 12:43:55;;;;;;;77.85;34.08;;;4.20;99.90;;;;;;5106605;27;20188;-72
2021/12/09 12:46:51;;;;;;;78.50;32.22;;;4.10;99.90;;;;;;5114306;27;20260;-72
2021/12/09 12:49:32;;;;;;;73.63;34.22;;;4.10;99.90;;;;;;5110051;27;20226;-68
2021/12/09 12:52:08;;;;;;;69.53;35.47;;;4.20;99.90;;;;;;5110635;27;20869;-70
2021/12/09 12:54:49;;;;;;;70.90;32.90;;;4.20;99.90;;;;;;5109323;27;20456;-69
2021/12/09 12:57:34;;;;;;;63.50;30.50;;;4.20;99.90;;;;;;5113545;27;20230;-69
2021/12/09 13:00:11;;;;;;;76.07;35.50;;;4.30;99.90;;;;;;5123183;27;20286;-69
2021/12/09 13:05:42;;;;;;;72.90;31.65;;;4.30;99.90;;;;;;5113102;27;20201;-69
2021/12/09 13:11:11;;;;;;;71.00;33.17;;;4.20;99.90;;;;;;5104681;27;20539;-69
2021/12/09 13:13:47;;;;;;;67.88;32.90;;;4.30;99.90;;;;;;5114176;27;20213;-70
2021/12/09 13:16:20;;;;;;;77.45;33.38;;;4.30;99.90;;;;;;5119641;27;20198;-72
2021/12/09 13:19:03;;;;;;;60.40;32.95;;;4.30;99.90;;;;;;5119363;27;20625;-72
2021/12/09 13:21:36;;;;;;;72.13;31.58;;;4.40;99.90;;;;;;5111430;27;20223;-72